Time;durP1;ratioP1;P1;durP2;ratioP2;P2;SDS_P1;SDS_P2;PMS_P1;PMS_P2;Temp;Humidity;BMP_temperature;BMP_pressure;BME280_temperature;BME280_humidity;BME280_pressure;Samples;Min_cycle;Max_cycle;Signal;HPM_P1;HPM_P2
2022/03/10 00:02:23;;;;;;;62.40;35.60;;;;;;;2.43;68.32;101391.15;2807491;84;21524;-71
2022/03/10 00:06:24;;;;;;;70.12;37.67;;;;;;;2.36;69.44;101402.31;2807136;84;21088;-71
2022/03/10 00:10:26;;;;;;;48.90;30.05;;;;;;;2.24;70.18;101408.76;2806836;84;21025;-72
2022/03/10 00:14:27;;;;;;;61.13;34.80;;;;;;;2.16;68.79;101416.45;2807315;84;21036;-72
2022/03/10 00:18:29;;;;;;;65.95;39.10;;;;;;;2.08;70.41;101422.78;2807054;84;21072;-72
2022/03/10 00:22:30;;;;;;;73.67;43.42;;;;;;;1.96;71.99;101438.42;2806585;84;21577;-71
2022/03/10 00:26:32;;;;;;;66.55;37.93;;;;;;;1.91;72.81;101441.63;2807088;84;21564;-71
2022/03/10 00:30:34;;;;;;;53.65;35.15;;;;;;;1.79;72.03;101437.58;2804064;84;21068;-71
2022/03/10 00:34:35;;;;;;;56.48;31.37;;;;;;;1.66;72.19;101441.42;2804092;84;21021;-72
2022/03/10 00:38:37;;;;;;;69.87;39.98;;;;;;;1.48;73.04;101443.61;2803777;84;21104;-70
2022/03/10 00:42:40;;;;;;;73.42;42.58;;;;;;;1.52;73.32;101433.44;2804185;84;21048;-71
2022/03/10 00:46:41;;;;;;;67.22;41.60;;;;;;;1.60;73.70;101438.96;2804221;84;21588;-72
2022/03/10 00:50:43;;;;;;;67.87;40.70;;;;;;;1.45;74.77;101445.00;2804029;84;21025;-73
2022/03/10 00:54:44;;;;;;;70.57;42.80;;;;;;;1.33;75.05;101441.36;2804054;84;21060;-72
2022/03/10 00:58:46;;;;;;;78.00;43.95;;;;;;;1.36;74.46;101443.90;2804178;84;21092;-72
2022/03/10 01:02:48;;;;;;;78.33;40.95;;;;;;;1.45;74.75;101446.75;2804113;84;21579;-72
2022/03/10 01:06:49;;;;;;;97.37;44.93;;;;;;;1.37;74.92;101458.30;2804036;84;21021;-72
2022/03/10 01:10:51;;;;;;;75.30;45.08;;;;;;;1.30;75.15;101455.86;2804124;84;21001;-72
2022/03/10 01:14:52;;;;;;;76.47;49.00;;;;;;;1.11;76.73;101458.92;2803882;84;21009;-72
2022/03/10 01:18:54;;;;;;;86.28;51.50;;;;;;;1.05;76.59;101463.84;2804378;84;21101;-71
2022/03/10 01:22:56;;;;;;;102.62;59.93;;;;;;;0.90;78.22;101458.98;2803908;84;21060;-72
2022/03/10 01:26:57;;;;;;;94.60;58.83;;;;;;;0.85;77.84;101461.70;2804166;84;21580;-72
2022/03/10 01:31:00;;;;;;;87.70;53.52;;;;;;;0.98;77.13;101465.77;2806865;84;21053;-73
2022/03/10 01:35:03;;;;;;;99.92;53.20;;;;;;;1.13;76.24;101461.93;2806663;84;21628;-71
2022/03/10 01:39:05;;;;;;;78.87;46.68;;;;;;;1.22;75.30;101464.78;2806803;83;21041;-72
2022/03/10 01:43:06;;;;;;;83.97;50.58;;;;;;;1.18;74.39;101467.07;2807081;84;21057;-72
2022/03/10 01:47:10;;;;;;;107.65;53.55;;;;;;;1.12;74.03;101462.83;2806723;84;21049;-73
2022/03/10 01:51:12;;;;;;;90.55;52.65;;;;;;;1.18;73.66;101465.76;2807100;84;21021;-71
2022/03/10 01:55:15;;;;;;;83.85;53.95;;;;;;;1.23;73.32;101462.57;2807014;84;21692;-73
2022/03/10 01:59:19;;;;;;;88.05;54.77;;;;;;;1.30;73.08;101465.91;2806863;84;21554;-72
2022/03/10 02:03:20;;;;;;;91.50;53.40;;;;;;;1.33;72.57;101466.27;2806714;84;21092;-71
2022/03/10 02:11:38;;;;;;;80.60;47.85;;;;;;;1.35;72.08;101465.34;2806482;84;21069;-72
2022/03/10 02:19:58;;;;;;;87.53;51.95;;;;;;;1.35;72.51;101468.40;2804749;84;21640;-72
2022/03/10 02:24:00;;;;;;;90.83;56.00;;;;;;;1.23;73.55;101476.98;2807688;84;21092;-72
2022/03/10 02:28:02;;;;;;;83.58;52.25;;;;;;;1.18;74.66;101484.55;2802529;84;21049;-73
2022/03/10 02:32:04;;;;;;;86.80;52.30;;;;;;;1.18;74.02;101482.80;2788578;85;21060;-72
2022/03/10 02:36:06;;;;;;;89.40;54.75;;;;;;;1.18;72.82;101484.11;2788422;85;21018;-73
2022/03/10 02:40:10;;;;;;;90.38;50.40;;;;;;;1.23;72.43;101494.46;2788232;85;21014;-72
2022/03/10 02:44:11;;;;;;;89.90;52.43;;;;;;;1.22;72.28;101496.23;2788217;85;21101;-72
2022/03/10 02:48:15;;;;;;;94.90;55.33;;;;;;;1.28;71.89;101510.97;2787754;85;21022;-73
2022/03/10 02:52:17;;;;;;;78.28;50.33;;;;;;;1.29;71.51;101512.69;2787853;85;21038;-73
2022/03/10 02:56:18;;;;;;;84.52;49.33;;;;;;;1.25;72.89;101515.82;2788005;85;21018;-71
2022/03/10 03:00:20;;;;;;;83.87;47.20;;;;;;;1.12;73.14;101518.30;2787176;85;21080;-72
2022/03/10 03:04:22;;;;;;;83.97;48.90;;;;;;;1.15;73.04;101522.16;2788290;85;21049;-69
2022/03/10 03:08:24;;;;;;;84.60;52.03;;;;;;;1.14;72.39;101529.17;2787831;85;21033;-71
2022/03/10 03:12:26;;;;;;;89.10;47.17;;;;;;;1.17;72.19;101537.40;2787757;85;21037;-74
2022/03/10 03:16:28;;;;;;;72.15;48.85;;;;;;;1.19;72.20;101538.25;2788232;85;21117;-73
2022/03/10 03:20:30;;;;;;;85.22;51.08;;;;;;;1.23;71.97;101545.58;2788177;85;21041;-72
2022/03/10 03:24:32;;;;;;;75.67;44.67;;;;;;;1.24;71.91;101542.94;2788538;85;21057;-72
2022/03/10 03:28:33;;;;;;;84.17;49.53;;;;;;;1.30;71.91;101552.43;2793543;84;21112;-73
2022/03/10 03:32:35;;;;;;;88.55;51.58;;;;;;;1.28;71.92;101552.45;2806458;84;21093;-72
2022/03/10 03:36:42;;;;;;;82.37;47.43;;;;;;;1.31;72.10;101557.20;2806354;84;21060;-71
2022/03/10 03:40:43;;;;;;;77.27;44.55;;;;;;;1.36;72.37;101561.89;2806285;84;21049;-74
2022/03/10 03:44:45;;;;;;;79.85;49.48;;;;;;;1.31;73.47;101565.95;2806341;83;21518;-73
2022/03/10 03:48:47;;;;;;;78.67;46.20;;;;;;;1.25;73.62;101570.88;2848857;83;21577;-73
2022/03/10 03:52:49;;;;;;;79.32;44.98;;;;;;;1.32;73.91;101574.66;2854823;83;21025;-73
2022/03/10 03:56:50;;;;;;;64.85;44.90;;;;;;;1.27;74.78;101569.08;2854490;81;21309;-72
2022/03/10 04:00:51;;;;;;;78.47;46.65;;;;;;;1.22;74.99;101581.44;2854167;81;21018;-70
2022/03/10 04:04:53;;;;;;;76.05;44.50;;;;;;;1.25;75.17;101583.98;2853928;83;21554;-70
2022/03/10 04:08:55;;;;;;;74.75;45.65;;;;;;;1.36;75.32;101594.66;2854278;81;21658;-69
2022/03/10 04:12:57;;;;;;;90.38;45.92;;;;;;;1.48;75.18;101591.77;2852030;81;21026;-69
2022/03/10 04:16:58;;;;;;;84.25;48.83;;;;;;;1.46;75.24;101594.00;2852813;83;21017;-71
2022/03/10 04:21:00;;;;;;;79.70;45.20;;;;;;;1.42;75.37;101601.10;2851683;83;21093;-71
2022/03/10 04:25:01;;;;;;;75.25;42.95;;;;;;;1.43;75.87;101617.25;2852021;83;21005;-71
2022/03/10 04:29:03;;;;;;;80.15;45.58;;;;;;;1.35;76.13;101618.73;2845203;83;21065;-72
2022/03/10 04:33:06;;;;;;;88.87;47.15;;;;;;;1.44;76.63;101626.84;2832905;83;21543;-71
2022/03/10 04:37:08;;;;;;;80.57;44.60;;;;;;;1.51;76.70;101633.66;2832981;84;21080;-71
2022/03/10 04:41:10;;;;;;;74.60;45.38;;;;;;;1.55;76.85;101636.63;2833520;83;21058;-71
2022/03/10 04:45:11;;;;;;;73.30;47.53;;;;;;;1.60;77.06;101647.48;2835518;83;21069;-71
2022/03/10 04:49:13;;;;;;;74.82;43.17;;;;;;;1.62;77.47;101642.60;2834248;83;21058;-71
2022/03/10 04:53:14;;;;;;;81.30;45.73;;;;;;;1.59;77.92;101648.39;2832994;84;21081;-71
2022/03/10 04:57:16;;;;;;;73.85;45.03;;;;;;;1.60;77.52;101654.05;2832843;84;21566;-72
2022/03/10 05:01:17;;;;;;;76.20;45.40;;;;;;;1.52;77.65;101656.37;2832605;83;21652;-71
2022/03/10 05:05:19;;;;;;;87.00;51.92;;;;;;;1.58;78.30;101663.25;2832866;84;20995;-71
2022/03/10 05:09:21;;;;;;;80.85;46.20;;;;;;;1.78;78.23;101658.88;2833103;83;21054;-80
2022/03/10 05:13:22;;;;;;;72.80;43.78;;;;;;;1.79;77.71;101666.28;2833272;84;21589;-75
2022/03/10 05:17:24;;;;;;;84.52;49.95;;;;;;;1.90;77.53;101660.78;2833529;83;21637;-71
2022/03/10 05:21:25;;;;;;;78.95;47.75;;;;;;;2.02;77.01;101667.06;2832712;83;21045;-71
2022/03/10 05:25:34;;;;;;;86.82;46.40;;;;;;;2.14;76.97;101676.41;2833174;84;21022;-71
2022/03/10 05:29:40;;;;;;;69.67;45.55;;;;;;;2.23;76.75;101676.63;2840520;83;21724;-70
2022/03/10 05:33:39;;;;;;;87.55;50.80;;;;;;;2.16;76.69;101682.48;2851560;83;21041;-69
2022/03/10 05:37:43;;;;;;;83.05;50.43;;;;;;;2.17;76.91;101688.61;2852780;83;21036;-70
2022/03/10 05:41:45;;;;;;;94.35;50.38;;;;;;;2.17;77.12;101695.17;2852193;83;21018;-70
2022/03/10 05:45:47;;;;;;;81.65;46.25;;;;;;;2.18;77.14;101704.30;2852645;83;21582;-70
2022/03/10 05:49:49;;;;;;;83.20;51.08;;;;;;;2.18;77.21;101702.98;2852778;83;21041;-69
2022/03/10 05:53:51;;;;;;;77.70;44.38;;;;;;;2.21;77.38;101715.19;2852747;83;21538;-70
2022/03/10 05:57:53;;;;;;;73.70;42.10;;;;;;;2.36;77.62;101722.70;2852455;83;21073;-70
2022/03/10 06:01:54;;;;;;;71.60;48.23;;;;;;;2.42;77.21;101723.86;2852702;83;21072;-70
2022/03/10 06:05:56;;;;;;;77.37;46.35;;;;;;;2.48;77.08;101725.91;2853099;83;20990;-70
2022/03/10 06:09:58;;;;;;;73.72;45.63;;;;;;;2.29;77.72;101727.67;2852697;83;21033;-70
2022/03/10 06:13:59;;;;;;;77.30;47.88;;;;;;;2.34;78.09;101735.45;2853086;83;21022;-71
2022/03/10 06:18:01;;;;;;;78.05;48.10;;;;;;;2.32;78.00;101740.73;2852816;83;20986;-70
2022/03/10 06:22:03;;;;;;;83.82;49.55;;;;;;;2.42;77.97;101738.74;2853109;83;21013;-70
2022/03/10 06:26:04;;;;;;;83.92;49.40;;;;;;;2.60;77.95;101740.07;2853187;83;20971;-70
2022/03/10 06:30:08;;;;;;;78.28;48.60;;;;;;;2.68;78.21;101747.30;2851326;83;21042;-70
2022/03/10 06:34:09;;;;;;;81.00;44.13;;;;;;;2.81;78.37;101757.03;2849836;83;20974;-70
2022/03/10 06:38:11;;;;;;;80.07;49.53;;;;;;;2.92;78.37;101765.95;2850088;83;21050;-70
2022/03/10 06:42:14;;;;;;;74.42;44.42;;;;;;;3.02;78.40;101765.27;2849489;83;21078;-70
2022/03/10 06:46:15;;;;;;;75.03;46.02;;;;;;;3.13;78.67;101770.23;2849974;83;21114;-70
2022/03/10 06:50:17;;;;;;;76.55;45.28;;;;;;;3.19;79.41;101784.55;2849563;83;21017;-70
2022/03/10 06:54:19;;;;;;;68.35;40.10;;;;;;;3.29;80.17;101785.17;2849790;83;20982;-70
2022/03/10 06:58:20;;;;;;;46.70;31.82;;;;;;;3.44;80.39;101790.45;2849958;83;21033;-70
2022/03/10 07:02:23;;;;;;;50.12;31.10;;;;;;;3.52;80.06;101800.77;2849555;83;21022;-69
2022/03/10 07:06:25;;;;;;;45.52;28.27;;;;;;;3.65;78.96;101806.10;2849873;83;21006;-70
2022/03/10 07:10:27;;;;;;;35.00;25.05;;;;;;;3.78;78.87;101811.88;2850109;83;21030;-70
2022/03/10 07:14:28;;;;;;;47.90;28.47;;;;;;;3.88;78.04;101811.59;2849717;83;21014;-70
2022/03/10 07:18:30;;;;;;;35.75;23.35;;;;;;;4.02;77.43;101816.00;2850147;83;21081;-71
2022/03/10 07:22:31;;;;;;;31.17;18.77;;;;;;;4.03;76.66;101811.14;2849802;83;20986;-71
2022/03/10 07:26:33;;;;;;;34.60;21.20;;;;;;;4.03;75.59;101820.36;2835091;82;21027;-71
2022/03/10 07:30:35;;;;;;;26.02;18.65;;;;;;;4.05;74.60;101826.91;2804115;84;21130;-71
2022/03/10 07:34:36;;;;;;;27.32;20.35;;;;;;;4.12;74.50;101820.07;2804595;84;21094;-72
2022/03/10 07:38:38;;;;;;;26.55;19.45;;;;;;;4.24;73.64;101821.94;2804721;84;21019;-71
2022/03/10 07:42:40;;;;;;;32.73;19.95;;;;;;;4.41;74.30;101827.55;2804801;84;20984;-70
2022/03/10 07:46:41;;;;;;;28.90;19.00;;;;;;;4.56;73.34;101825.34;2804721;84;21023;-71
2022/03/10 07:50:43;;;;;;;26.20;17.60;;;;;;;4.67;72.66;101829.80;2804406;84;21121;-71
2022/03/10 07:54:44;;;;;;;24.20;17.60;;;;;;;4.95;72.51;101828.91;2804439;84;21070;-71
2022/03/10 07:58:46;;;;;;;33.30;18.07;;;;;;;5.28;70.86;101831.29;2804831;84;21102;-72
2022/03/10 08:02:48;;;;;;;19.73;12.13;;;;;;;5.57;70.22;101832.05;2804497;84;21685;-72
2022/03/10 08:06:49;;;;;;;27.75;17.95;;;;;;;5.71;67.80;101843.91;2804674;84;21070;-72
2022/03/10 08:10:51;;;;;;;28.20;18.05;;;;;;;5.86;65.95;101836.70;2804853;84;21611;-72
2022/03/10 08:14:53;;;;;;;34.90;20.25;;;;;;;5.89;65.68;101840.16;2804608;84;21062;-72
2022/03/10 08:18:54;;;;;;;28.40;16.20;;;;;;;5.78;65.70;101844.06;2805004;84;21059;-71
2022/03/10 08:22:57;;;;;;;21.55;16.67;;;;;;;5.51;65.06;101844.16;2805038;84;21098;-71
2022/03/10 08:26:58;;;;;;;22.58;14.50;;;;;;;5.32;64.85;101836.02;2805381;84;21023;-71
2022/03/10 08:31:02;;;;;;;26.00;16.67;;;;;;;5.19;65.67;101855.37;2817120;84;21060;-72
2022/03/10 08:35:04;;;;;;;25.17;17.48;;;;;;;5.42;66.56;101851.95;2828020;84;21020;-72
2022/03/10 08:39:06;;;;;;;26.82;17.60;;;;;;;5.63;64.02;101845.94;2828196;84;21109;-71
2022/03/10 08:43:12;;;;;;;42.88;27.58;;;;;;;5.73;63.39;101852.62;2828037;84;21052;-72
2022/03/10 08:47:11;;;;;;;29.40;18.92;;;;;;;5.82;63.30;101862.84;2828439;82;21644;-72
2022/03/10 08:51:13;;;;;;;34.50;23.95;;;;;;;5.85;62.35;101868.00;2748234;86;21611;-71
2022/03/10 08:55:15;;;;;;;19.87;15.03;;;;;;;5.77;62.31;101872.72;2827611;84;21043;-71
2022/03/10 08:59:16;;;;;;;19.50;13.72;;;;;;;5.64;61.66;101872.74;2748569;86;21609;-71
2022/03/10 09:03:18;;;;;;;21.40;14.40;;;;;;;5.54;61.26;101878.80;2828105;83;21049;-71
2022/03/10 09:07:19;;;;;;;16.32;11.85;;;;;;;5.54;61.29;101871.77;2828435;84;21075;-71
2022/03/10 09:11:22;;;;;;;18.55;14.38;;;;;;;5.61;60.87;101872.41;2827641;84;21060;-72
2022/03/10 09:15:26;;;;;;;14.80;12.50;;;;;;;5.62;60.27;101869.30;2828107;84;21095;-70
2022/03/10 09:19:27;;;;;;;18.92;13.22;;;;;;;5.53;59.61;101873.13;2827895;84;21060;-71
2022/03/10 09:23:29;;;;;;;22.30;12.78;;;;;;;5.69;59.94;101874.75;2748269;85;21091;-71
2022/03/10 09:27:32;;;;;;;16.00;12.35;;;;;;;5.85;58.50;101864.52;2828243;84;21342;-71
2022/03/10 09:31:34;;;;;;;15.88;9.20;;;;;;;6.01;58.44;101870.11;2828051;83;21075;-72
2022/03/10 09:35:35;;;;;;;12.28;9.88;;;;;;;6.06;56.88;101873.91;2748037;85;21066;-71
2022/03/10 09:39:37;;;;;;;12.23;9.63;;;;;;;6.13;56.25;101867.47;2827526;83;21119;-71
2022/03/10 09:43:39;;;;;;;10.05;8.70;;;;;;;6.12;54.98;101877.64;2748005;86;21137;-71
2022/03/10 09:47:43;;;;;;;15.48;9.23;;;;;;;6.22;55.18;101875.51;2828341;84;21040;-72
2022/03/10 09:51:48;;;;;;;8.78;5.12;;;;;;;6.33;52.58;101873.77;2828083;84;21072;-72
2022/03/10 09:55:51;;;;;;;7.78;5.78;;;;;;;6.29;50.44;101874.37;2828159;84;21612;-71
2022/03/10 09:59:57;;;;;;;13.78;9.40;;;;;;;6.36;51.44;101887.74;2828408;84;21636;-72
2022/03/10 10:03:59;;;;;;;13.60;8.28;;;;;;;6.36;53.55;101893.03;2828481;84;21001;-71
2022/03/10 10:08:17;;;;;;;10.70;7.60;;;;;;;6.41;51.87;101893.70;2828427;84;21319;-71
2022/03/10 10:12:22;;;;;;;13.08;8.45;;;;;;;6.51;51.62;101890.72;2828171;84;21072;-71
2022/03/10 10:16:23;;;;;;;17.07;12.23;;;;;;;6.56;52.58;101888.75;2828575;82;21041;-72
2022/03/10 10:20:24;;;;;;;11.22;7.50;;;;;;;6.60;50.19;101894.78;2828334;84;21151;-72
2022/03/10 10:24:27;;;;;;;10.20;6.35;;;;;;;6.69;50.19;101892.64;2748459;86;21093;-72
2022/03/10 10:28:36;;;;;;;9.73;7.00;;;;;;;6.77;49.77;101887.49;2828090;83;21036;-72
2022/03/10 10:32:52;;;;;;;11.05;7.33;;;;;;;6.90;49.94;101888.73;2748196;84;21063;-72
2022/03/10 10:36:51;;;;;;;13.72;8.48;;;;;;;6.98;48.39;101890.59;2827169;84;21044;-69
2022/03/10 10:40:55;;;;;;;12.95;8.15;;;;;;;7.00;48.60;101890.06;2828153;84;21108;-72
2022/03/10 10:45:01;;;;;;;10.48;7.65;;;;;;;6.95;47.91;101886.75;2826883;83;21667;-71
2022/03/10 10:49:06;;;;;;;24.90;9.83;;;;;;;6.94;47.67;101884.16;2828387;84;21084;-72
2022/03/10 10:53:09;;;;;;;9.15;7.80;;;;;;;6.95;48.25;101883.23;2828416;83;21087;-71
2022/03/10 10:57:16;;;;;;;10.00;8.15;;;;;;;6.98;47.31;101876.03;2828442;84;21579;-72
2022/03/10 11:01:34;;;;;;;13.43;8.83;;;;;;;7.02;47.65;101879.88;2826823;84;21116;-72
2022/03/10 11:05:37;;;;;;;10.78;7.87;;;;;;;7.11;48.84;101880.83;2800345;84;21031;-71
2022/03/10 11:09:42;;;;;;;8.58;6.87;;;;;;;7.06;48.69;101876.16;2828317;84;21104;-72
2022/03/10 11:13:43;;;;;;;10.70;9.45;;;;;;;7.17;48.34;101868.66;2828091;83;21948;-72
2022/03/10 11:17:45;;;;;;;9.33;7.42;;;;;;;7.12;48.59;101878.58;2827800;84;21592;-71
2022/03/10 11:22:10;;;;;;;8.60;7.17;;;;;;;7.11;48.50;101874.22;2828175;84;21024;-71
2022/03/10 11:26:29;;;;;;;9.00;7.05;;;;;;;7.14;47.63;101868.31;2827927;84;21080;-72
2022/03/10 11:30:32;;;;;;;18.30;12.47;;;;;;;7.26;48.72;101862.95;2828201;84;21072;-72
2022/03/10 11:34:47;;;;;;;15.15;10.38;;;;;;;7.25;47.88;101865.69;2828693;84;21048;-71
2022/03/10 11:39:04;;;;;;;11.40;8.65;;;;;;;7.40;48.21;101866.80;2828470;83;21035;-71
2022/03/10 11:43:05;;;;;;;11.68;8.45;;;;;;;7.43;47.04;101867.98;2828483;84;21017;-72
2022/03/10 11:47:12;;;;;;;7.40;6.03;;;;;;;7.44;45.73;101857.80;2828577;83;21080;-71
2022/03/10 11:51:18;;;;;;;10.72;6.67;;;;;;;7.32;44.33;101855.22;2828977;82;21056;-71
2022/03/10 11:55:22;;;;;;;11.10;6.55;;;;;;;7.36;44.40;101866.06;2828706;83;21056;-71
2022/03/10 11:59:40;;;;;;;14.10;8.78;;;;;;;7.36;45.20;101861.25;2828642;84;21080;-71
2022/03/10 12:03:46;;;;;;;6.92;6.20;;;;;;;7.25;44.74;101861.71;2828397;83;21069;-70
2022/03/10 12:07:54;;;;;;;11.73;8.03;;;;;;;7.26;44.05;101858.98;2828388;83;21032;-72
2022/03/10 12:12:13;;;;;;;6.47;5.55;;;;;;;7.36;45.36;101858.61;2828151;83;21048;-72
2022/03/10 12:16:29;;;;;;;9.78;6.30;;;;;;;7.41;45.05;101854.84;2827299;84;21615;-72
2022/03/10 12:20:40;;;;;;;9.73;6.90;;;;;;;7.43;44.57;101852.11;2828577;84;21048;-71
2022/03/10 12:24:44;;;;;;;15.45;7.50;;;;;;;7.32;45.47;101861.00;2828682;84;21083;-71
2022/03/10 12:28:49;;;;;;;15.43;5.80;;;;;;;7.25;45.49;101867.01;2748566;84;21016;-71
2022/03/10 12:32:53;;;;;;;8.40;6.30;;;;;;;7.26;44.82;101860.78;2742899;86;21101;-72
2022/03/10 12:36:57;;;;;;;7.45;5.92;;;;;;;7.28;43.44;101861.13;2742947;86;21057;-71
2022/03/10 12:40:58;;;;;;;10.88;6.30;;;;;;;7.38;44.08;101857.63;2736075;87;21073;-72
2022/03/10 12:45:00;;;;;;;12.43;7.10;;;;;;;7.43;42.17;101854.75;2736077;86;21110;-72
2022/03/10 12:49:20;;;;;;;8.15;5.58;;;;;;;7.39;43.57;101851.84;2735865;87;21137;-71
2022/03/10 12:53:22;;;;;;;8.30;4.75;;;;;;;7.41;41.59;101859.26;2735991;87;21057;-71
2022/03/10 12:57:23;;;;;;;11.68;6.97;;;;;;;7.43;41.81;101858.73;2736295;86;21033;-72
2022/03/10 13:01:25;;;;;;;10.53;6.40;;;;;;;7.56;42.80;101853.30;2736011;87;21136;-72
2022/03/10 13:05:27;;;;;;;11.40;5.20;;;;;;;7.54;42.84;101857.80;2736139;86;21057;-70
2022/03/10 13:09:28;;;;;;;8.33;5.65;;;;;;;7.63;43.58;101860.96;2736076;87;21073;-71
2022/03/10 13:13:30;;;;;;;9.48;6.70;;;;;;;7.64;41.32;101858.70;2736124;85;21125;-71
2022/03/10 13:17:40;;;;;;;7.72;6.92;;;;;;;7.62;41.06;101857.92;2736240;87;21534;-71
2022/03/10 13:21:56;;;;;;;8.48;6.47;;;;;;;7.52;41.40;101849.52;2735756;87;21054;-72
2022/03/10 13:25:57;;;;;;;8.50;5.12;;;;;;;7.52;41.44;101858.79;2736332;87;21491;-71
2022/03/10 13:29:59;;;;;;;9.50;7.50;;;;;;;7.44;40.74;101851.17;2735562;87;21641;-71
2022/03/10 13:34:01;;;;;;;11.18;7.85;;;;;;;7.46;42.03;101851.13;2736197;87;21721;-72
2022/03/10 13:38:07;;;;;;;12.15;9.38;;;;;;;7.52;42.47;101846.42;2735911;86;21081;-71
2022/03/10 13:42:26;;;;;;;14.60;10.78;;;;;;;7.64;43.51;101841.49;2735920;87;21915;-72
2022/03/10 13:46:31;;;;;;;17.12;10.38;;;;;;;7.61;42.30;101834.56;2726736;85;21079;-72
2022/03/10 13:50:36;;;;;;;11.63;8.63;;;;;;;7.64;42.54;101845.47;2736341;87;21573;-72
2022/03/10 13:54:39;;;;;;;23.05;16.17;;;;;;;7.65;42.36;101835.27;2736377;87;21057;-72
2022/03/10 13:58:41;;;;;;;15.48;11.08;;;;;;;7.69;42.81;101827.60;2787293;83;21023;-72
2022/03/10 14:02:50;;;;;;;18.40;12.75;;;;;;;7.69;41.62;101830.25;2791692;84;21026;-73
2022/03/10 14:06:53;;;;;;;19.32;12.00;;;;;;;7.72;40.83;101837.57;2762775;84;21106;-72
2022/03/10 14:11:09;;;;;;;15.15;7.87;;;;;;;7.70;39.07;101834.62;2791412;83;21038;-73
2022/03/10 14:15:11;;;;;;;17.60;9.20;;;;;;;7.49;40.11;101835.09;2852385;82;21348;-74
2022/03/10 14:19:20;;;;;;;11.45;7.53;;;;;;;7.49;41.11;101828.03;2844893;81;21069;-76
2022/03/10 14:23:25;;;;;;;23.27;10.30;;;;;;;7.42;39.97;101831.85;2872936;81;21084;-74
2022/03/10 14:27:30;;;;;;;16.05;9.43;;;;;;;7.38;40.02;101833.80;2855827;83;21571;-74
2022/03/10 14:31:32;;;;;;;16.23;7.87;;;;;;;7.29;39.68;101825.80;2856135;83;21128;-73
2022/03/10 14:35:39;;;;;;;9.05;6.87;;;;;;;7.18;39.04;101821.41;2852443;82;21584;-74
2022/03/10 14:39:38;;;;;;;14.28;10.32;;;;;;;7.17;39.76;101813.08;2850684;82;21046;-74
2022/03/10 14:43:39;;;;;;;8.65;5.87;;;;;;;7.20;39.82;101812.94;2855035;81;21096;-72
2022/03/10 14:47:41;;;;;;;9.55;6.80;;;;;;;7.17;38.56;101813.08;2852858;83;21073;-72
2022/03/10 14:51:43;;;;;;;7.72;5.03;;;;;;;7.07;39.15;101809.09;2852451;83;21089;-72
2022/03/10 14:55:45;;;;;;;11.03;5.87;;;;;;;7.00;38.97;101820.42;2852745;83;21037;-72
2022/03/10 14:59:47;;;;;;;12.10;7.33;;;;;;;6.90;40.13;101817.30;2852861;83;21088;-71
2022/03/10 15:03:49;;;;;;;12.40;7.42;;;;;;;6.94;40.71;101814.92;2852716;83;21042;-72
2022/03/10 15:07:51;;;;;;;10.63;5.90;;;;;;;6.80;40.37;101809.34;2852834;83;21065;-72
2022/03/10 15:11:53;;;;;;;10.03;6.83;;;;;;;6.77;40.31;101814.28;2853167;83;20986;-72
2022/03/10 15:15:54;;;;;;;10.60;5.80;;;;;;;6.65;40.46;101809.52;2852899;83;21009;-72
2022/03/10 15:19:56;;;;;;;13.53;6.90;;;;;;;6.55;39.94;101813.84;2854085;83;21061;-72
2022/03/10 15:23:58;;;;;;;17.23;7.85;;;;;;;6.49;38.58;101813.25;2852602;83;21577;-71
2022/03/10 15:28:03;;;;;;;11.43;6.67;;;;;;;6.42;40.23;101816.60;2852551;83;21053;-71
2022/03/10 15:32:07;;;;;;;8.50;5.67;;;;;;;6.36;40.76;101815.05;2852893;83;21550;-71
2022/03/10 15:36:08;;;;;;;11.60;6.72;;;;;;;6.32;40.58;101820.07;2852911;83;21740;-72
2022/03/10 15:40:12;;;;;;;8.90;6.10;;;;;;;6.32;40.76;101815.23;2852881;83;21585;-72
2022/03/10 15:44:13;;;;;;;16.25;9.75;;;;;;;6.21;41.33;101820.94;2852547;83;21046;-72
2022/03/10 15:48:16;;;;;;;9.18;6.53;;;;;;;6.12;41.95;101823.03;2853031;83;21045;-72
2022/03/10 15:52:18;;;;;;;14.10;8.03;;;;;;;6.03;41.80;101819.41;2852981;83;21081;-71
2022/03/10 15:56:20;;;;;;;9.33;6.62;;;;;;;6.01;43.30;101825.20;2852679;83;21549;-72
2022/03/10 16:00:22;;;;;;;6.85;5.08;;;;;;;5.92;42.89;101832.98;2852727;83;21050;-72
2022/03/10 16:04:23;;;;;;;12.07;6.37;;;;;;;5.82;42.21;101836.42;2852586;83;20994;-72
2022/03/10 16:08:25;;;;;;;9.98;5.33;;;;;;;5.72;42.14;101837.70;2853071;83;21554;-72
2022/03/10 16:12:26;;;;;;;12.18;8.05;;;;;;;5.61;43.22;101836.77;2853135;83;21085;-72
2022/03/10 16:16:28;;;;;;;44.50;19.82;;;;;;;5.48;43.50;101845.56;2855056;81;21057;-72
2022/03/10 16:20:33;;;;;;;20.02;12.20;;;;;;;5.38;42.87;101846.82;2855303;83;21641;-70
2022/03/10 16:24:33;;;;;;;16.02;8.33;;;;;;;5.31;43.45;101849.28;2854881;83;21022;-70
2022/03/10 16:28:36;;;;;;;52.33;25.27;;;;;;;5.11;43.66;101849.03;2847898;81;21029;-69
2022/03/10 16:32:41;;;;;;;28.95;16.05;;;;;;;5.00;43.18;101848.08;2861702;81;21065;-72
2022/03/10 16:36:42;;;;;;;23.10;12.50;;;;;;;4.85;43.78;101855.16;2851305;83;21613;-71
2022/03/10 16:40:46;;;;;;;22.45;12.47;;;;;;;4.74;43.96;101855.98;2793172;85;21034;-72
2022/03/10 16:44:48;;;;;;;12.40;8.58;;;;;;;4.62;45.48;101860.73;2764080;86;21038;-71
2022/03/10 16:48:49;;;;;;;15.18;10.30;;;;;;;4.41;46.66;101873.66;2793842;83;21042;-71
2022/03/10 16:52:51;;;;;;;17.62;10.13;;;;;;;4.21;47.32;101866.81;2744767;86;21594;-72
2022/03/10 16:56:53;;;;;;;12.55;8.18;;;;;;;4.00;48.00;101870.48;2775884;85;21054;-72
2022/03/10 17:00:55;;;;;;;17.65;9.18;;;;;;;3.82;48.51;101871.86;2778767;84;21057;-72
2022/03/10 17:04:58;;;;;;;20.30;9.75;;;;;;;3.67;49.25;101867.89;2793521;83;21066;-71
2022/03/10 17:09:00;;;;;;;13.45;8.65;;;;;;;3.51;49.30;101868.30;2793396;85;21098;-71
2022/03/10 17:13:02;;;;;;;12.65;8.90;;;;;;;3.34;50.09;101871.39;2793049;85;21059;-71
2022/03/10 17:17:05;;;;;;;14.73;7.22;;;;;;;3.14;50.05;101877.14;2791575;85;23407;-71
2022/03/10 17:21:07;;;;;;;16.30;9.25;;;;;;;3.07;50.35;101886.98;2792484;85;21062;-72
2022/03/10 17:25:09;;;;;;;14.15;9.30;;;;;;;2.97;50.54;101888.97;2792217;85;21114;-71
2022/03/10 17:29:10;;;;;;;15.43;8.70;;;;;;;2.87;50.91;101881.34;2792413;85;21066;-72
2022/03/10 17:33:12;;;;;;;19.40;9.40;;;;;;;2.75;51.55;101896.92;2771280;85;21056;-72
2022/03/10 17:37:14;;;;;;;18.37;10.45;;;;;;;2.61;51.79;101893.30;2688295;88;21071;-72
2022/03/10 17:41:16;;;;;;;16.30;10.35;;;;;;;2.55;51.96;101895.61;2702675;87;21099;-70
2022/03/10 17:45:23;;;;;;;18.42;11.45;;;;;;;2.47;52.60;101903.69;2703441;88;21115;-70
2022/03/10 17:49:24;;;;;;;;;;;;;;;2.37;52.35;101899.09;2705781;88;21147;-73
2022/03/10 17:53:28;;;;;;;17.12;10.65;;;;;;;2.30;52.01;101901.41;2703094;88;20132;-72
2022/03/10 17:57:29;;;;;;;13.05;9.20;;;;;;;2.25;52.21;101898.02;2703106;88;21035;-72
2022/03/10 18:01:31;;;;;;;10.65;6.42;;;;;;;2.24;51.52;101903.70;2703114;88;21665;-72
2022/03/10 18:05:33;;;;;;;10.82;7.85;;;;;;;2.29;50.83;101908.88;2713604;86;21066;-73
2022/03/10 18:09:34;;;;;;;13.38;8.25;;;;;;;2.33;50.74;101910.99;2741201;85;21063;-71
2022/03/10 18:13:36;;;;;;;20.08;10.03;;;;;;;2.37;50.66;101912.22;2693768;87;21056;-71
2022/03/10 18:17:38;;;;;;;16.27;9.58;;;;;;;2.40;50.59;101908.20;2693953;88;21165;-71
2022/03/10 18:21:40;;;;;;;14.70;12.37;;;;;;;2.41;50.31;101907.31;2693835;87;21135;-71
2022/03/10 18:25:41;;;;;;;16.10;12.45;;;;;;;2.42;49.95;101905.09;2709065;86;21091;-73
2022/03/10 18:29:44;;;;;;;23.00;14.50;;;;;;;2.49;50.27;101907.58;2734356;87;21130;-71
2022/03/10 18:33:45;;;;;;;23.52;14.05;;;;;;;2.52;50.12;101908.82;2759623;85;21647;-67
2022/03/10 18:37:47;;;;;;;25.65;12.73;;;;;;;2.54;50.29;101912.27;2792002;85;21066;-71
2022/03/10 18:41:49;;;;;;;17.55;11.95;;;;;;;2.51;50.44;101909.28;2790528;85;21066;-71
2022/03/10 18:45:50;;;;;;;20.55;13.28;;;;;;;2.47;50.76;101919.88;2756316;86;21065;-70
2022/03/10 18:49:53;;;;;;;21.62;14.13;;;;;;;2.42;51.41;101916.91;2756088;85;21301;-72
2022/03/10 18:53:55;;;;;;;29.72;17.48;;;;;;;2.34;51.70;101917.51;2754551;86;21063;-72